createdAt,value
2017-11-19T00:01:32.629Z,86.40
2017-11-19T00:04:00.224Z,86.50
2017-11-19T00:06:27.802Z,86.50
2017-11-19T00:08:56.177Z,86.80
2017-11-19T00:11:24.539Z,86.90
2017-11-19T00:13:52.125Z,86.90
2017-11-19T00:16:20.497Z,86.70
2017-11-19T00:18:48.838Z,86.90
2017-11-19T00:21:16.440Z,86.90
2017-11-19T00:23:44.007Z,87.00
2017-11-19T00:26:12.348Z,87.20
2017-11-19T00:28:39.922Z,87.20
2017-11-19T00:31:07.543Z,87.10
2017-11-19T00:33:35.118Z,87.30
2017-11-19T00:36:02.693Z,87.50
2017-11-19T00:38:30.291Z,88.00
2017-11-19T00:40:58.617Z,88.60
2017-11-19T00:43:29.003Z,88.50
2017-11-19T00:45:56.581Z,90.30
2017-11-19T00:48:24.165Z,90.30
2017-11-19T00:50:51.725Z,89.50
2017-11-19T00:53:19.285Z,90.00
2017-11-19T00:55:46.841Z,90.20
2017-11-19T00:58:14.447Z,90.10
2017-11-19T01:00:42.804Z,90.20
2017-11-19T01:03:10.382Z,90.20
2017-11-19T01:05:38.716Z,90.60
2017-11-19T01:08:06.298Z,90.60
2017-11-19T01:10:33.865Z,90.30
2017-11-19T01:13:01.430Z,90.70
2017-11-19T01:15:29.014Z,90.40
2017-11-19T01:17:57.341Z,90.40
2017-11-19T01:20:24.922Z,90.30
2017-11-19T01:22:52.509Z,90.30
2017-11-19T01:25:20.859Z,90.30
2017-11-19T01:27:48.433Z,90.30
2017-11-19T01:30:16.799Z,90.20
2017-11-19T01:32:44.360Z,90.50
2017-11-19T01:35:11.948Z,90.10
2017-11-19T01:37:40.297Z,90.10
2017-11-19T01:40:07.868Z,90.10
2017-11-19T01:42:35.447Z,90.20
2017-11-19T01:45:03.780Z,90.10
2017-11-19T01:47:31.341Z,90.10
2017-11-19T01:49:58.891Z,90.20
2017-11-19T01:52:26.456Z,90.00
2017-11-19T01:54:54.019Z,90.00
2017-11-19T01:57:21.609Z,90.00
2017-11-19T01:59:49.198Z,89.40
2017-11-19T02:02:28.635Z,89.60
2017-11-19T02:04:56.217Z,89.50
2017-11-19T02:07:23.796Z,89.90
2017-11-19T02:09:51.365Z,89.70
2017-11-19T02:12:18.925Z,90.10
2017-11-19T02:14:46.507Z,89.40
2017-11-19T02:17:14.063Z,89.80
2017-11-19T02:19:41.626Z,90.00
2017-11-19T02:22:09.204Z,89.40
2017-11-19T02:24:36.775Z,89.70
2017-11-19T02:27:05.110Z,89.80
2017-11-19T02:29:32.689Z,89.80
2017-11-19T02:32:00.340Z,89.80
2017-11-19T02:34:27.924Z,90.10
2017-11-19T02:36:56.255Z,90.70
2017-11-19T02:39:23.842Z,90.60
2017-11-19T02:41:51.438Z,91.00
2017-11-19T02:44:19.761Z,91.30
2017-11-19T02:46:47.345Z,91.30
2017-11-19T02:49:14.933Z,91.30
2017-11-19T02:51:43.255Z,91.30
2017-11-19T02:54:10.824Z,91.30
2017-11-19T02:56:38.374Z,91.50
2017-11-19T02:59:05.934Z,91.70
2017-11-19T03:01:33.502Z,91.80
2017-11-19T03:04:01.064Z,91.70
2017-11-19T03:06:28.677Z,91.80
2017-11-19T03:08:56.241Z,91.90
2017-11-19T03:11:23.844Z,92.00
2017-11-19T03:13:51.415Z,91.90
2017-11-19T03:16:19.036Z,92.00
2017-11-19T03:18:46.583Z,92.10
2017-11-19T03:21:14.180Z,92.20
2017-11-19T03:23:41.731Z,92.00
2017-11-19T03:26:09.306Z,91.80
2017-11-19T03:28:36.923Z,92.30
2017-11-19T03:31:04.486Z,91.90
2017-11-19T03:33:32.080Z,92.20
2017-11-19T03:35:59.636Z,92.10
2017-11-19T03:38:27.201Z,91.70
2017-11-19T03:40:54.770Z,92.10
2017-11-19T03:43:22.343Z,92.30
2017-11-19T03:45:49.930Z,92.30
2017-11-19T03:48:18.264Z,92.10
2017-11-19T03:50:45.818Z,92.10
2017-11-19T03:53:13.411Z,92.00
2017-11-19T03:55:40.972Z,92.30
2017-11-19T03:58:08.543Z,92.20
2017-11-19T04:00:36.889Z,92.20
2017-11-19T04:03:04.451Z,92.20
2017-11-19T04:05:32.021Z,92.40
2017-11-19T04:07:59.615Z,92.40
2017-11-19T04:10:27.931Z,92.70
2017-11-19T04:12:55.501Z,92.60
2017-11-19T04:15:23.079Z,92.60
2017-11-19T04:17:50.644Z,92.70
2017-11-19T04:20:18.238Z,92.80
2017-11-19T04:22:45.810Z,92.80
2017-11-19T04:25:13.387Z,92.80
2017-11-19T04:27:40.947Z,92.80
2017-11-19T04:30:08.542Z,92.80
2017-11-19T04:32:36.134Z,93.00
2017-11-19T04:35:04.495Z,92.90
2017-11-19T04:37:32.841Z,93.00
2017-11-19T04:40:00.410Z,92.90
2017-11-19T04:42:27.988Z,92.80
2017-11-19T04:44:55.536Z,92.80
2017-11-19T04:47:23.100Z,92.80
2017-11-19T04:49:50.666Z,92.80
2017-11-19T04:52:18.235Z,92.60
2017-11-19T04:54:45.792Z,92.80
2017-11-19T04:57:13.359Z,92.90
2017-11-19T04:59:41.698Z,93.00
2017-11-19T05:02:09.278Z,93.00
2017-11-19T05:04:36.845Z,93.00
2017-11-19T05:07:04.422Z,93.00
2017-11-19T05:09:32.805Z,93.00
2017-11-19T05:12:01.158Z,92.80
2017-11-19T05:14:28.718Z,92.80
2017-11-19T05:16:56.314Z,92.80
2017-11-19T05:19:24.627Z,92.50
2017-11-19T05:21:52.192Z,92.50
2017-11-19T05:24:20.486Z,92.60
2017-11-19T05:26:48.064Z,92.70
2017-11-19T05:29:15.746Z,92.70
2017-11-19T05:31:43.354Z,92.80
2017-11-19T05:34:10.964Z,92.90
2017-11-19T05:36:39.313Z,93.10
2017-11-19T05:39:06.925Z,93.00
2017-11-19T05:41:34.479Z,93.00
2017-11-19T05:44:02.079Z,92.80
2017-11-19T05:46:29.661Z,92.80
2017-11-19T05:48:57.247Z,92.90
2017-11-19T05:51:25.608Z,93.10
2017-11-19T05:53:53.183Z,93.10
2017-11-19T05:56:21.540Z,93.60
2017-11-19T05:58:49.139Z,93.60
2017-11-19T06:01:16.716Z,93.60
2017-11-19T06:03:44.308Z,93.60
2017-11-19T06:06:11.873Z,93.30
2017-11-19T06:08:39.438Z,93.30
2017-11-19T06:11:06.997Z,93.40
2017-11-19T06:13:34.657Z,93.10
2017-11-19T06:16:02.242Z,93.40
2017-11-19T06:18:29.796Z,93.50
2017-11-19T06:20:57.387Z,93.60
2017-11-19T06:23:24.944Z,93.70
2017-11-19T06:25:52.537Z,93.80
2017-11-19T06:28:20.134Z,93.90
2017-11-19T06:30:47.710Z,93.90
2017-11-19T06:33:15.266Z,93.70
2017-11-19T06:35:42.843Z,93.80
2017-11-19T06:38:10.408Z,93.90
2017-11-19T06:40:38.772Z,94.20
2017-11-19T06:43:06.387Z,94.20
2017-11-19T06:45:33.943Z,94.10
2017-11-19T06:48:01.535Z,94.10
2017-11-19T06:50:29.087Z,94.00
2017-11-19T06:52:56.663Z,94.10
2017-11-19T06:55:24.210Z,94.00
2017-11-19T06:57:51.827Z,94.20
2017-11-19T07:00:20.150Z,94.20
2017-11-19T07:02:47.772Z,94.20
2017-11-19T07:05:15.329Z,94.30
2017-11-19T07:07:43.676Z,94.30
2017-11-19T07:10:11.246Z,94.30
2017-11-19T07:12:39.621Z,94.10
2017-11-19T07:15:07.193Z,94.10
2017-11-19T07:17:35.529Z,93.40
2017-11-19T07:20:03.090Z,93.40
2017-11-19T07:22:30.664Z,93.50
2017-11-19T07:24:58.220Z,93.00
2017-11-19T07:27:25.807Z,93.00
2017-11-19T07:29:54.132Z,93.00
2017-11-19T07:32:21.741Z,93.00
2017-11-19T07:34:50.079Z,93.10
2017-11-19T07:37:17.674Z,93.10
2017-11-19T07:39:46.060Z,93.10
2017-11-19T07:42:14.403Z,92.80
2017-11-19T07:44:42.062Z,92.70
2017-11-19T07:47:09.652Z,92.60
2017-11-19T07:49:37.223Z,92.40
2017-11-19T07:52:05.889Z,92.40
2017-11-19T07:54:33.758Z,92.40
2017-11-19T07:57:01.392Z,92.10
2017-11-19T07:59:28.978Z,92.10
2017-11-19T08:01:56.603Z,91.90
2017-11-19T08:04:24.210Z,91.90
2017-11-19T08:06:51.749Z,91.40
2017-11-19T08:09:19.344Z,91.40
2017-11-19T08:11:47.670Z,91.40
2017-11-19T08:14:15.251Z,91.40
2017-11-19T08:16:42.809Z,91.40
2017-11-19T08:19:10.422Z,91.50
2017-11-19T08:21:37.979Z,91.60
2017-11-19T08:24:05.582Z,91.50
2017-11-19T08:26:33.162Z,91.60
2017-11-19T08:29:00.721Z,91.40
2017-11-19T08:31:28.303Z,91.40
2017-11-19T08:33:56.629Z,91.80
2017-11-19T08:36:24.970Z,91.20
2017-11-19T08:38:52.525Z,91.50
2017-11-19T08:41:20.868Z,91.60
2017-11-19T08:43:48.436Z,91.50
2017-11-19T08:46:16.037Z,91.70
2017-11-19T08:48:43.634Z,91.80
2017-11-19T08:51:11.332Z,91.70
2017-11-19T08:53:38.923Z,91.60
2017-11-19T08:56:06.515Z,91.90
2017-11-19T08:58:34.365Z,91.60
2017-11-19T09:01:01.936Z,91.80
2017-11-19T09:03:29.560Z,91.60
2017-11-19T09:05:57.882Z,91.40
2017-11-19T09:08:25.823Z,91.30
2017-11-19T09:10:53.418Z,91.20
2017-11-19T09:13:21.002Z,91.20
2017-11-19T09:15:49.382Z,91.30
2017-11-19T09:18:16.966Z,91.30
2017-11-19T09:20:45.339Z,91.50
2017-11-19T09:23:13.694Z,91.40
2017-11-19T09:25:41.271Z,91.40
2017-11-19T09:28:09.705Z,91.60
2017-11-19T09:30:37.278Z,91.40
2017-11-19T09:33:04.972Z,91.30
2017-11-19T09:35:32.570Z,91.10
2017-11-19T09:38:00.148Z,90.90
2017-11-19T09:40:27.714Z,90.50
2017-11-19T09:42:56.377Z,90.30
2017-11-19T09:45:24.955Z,90.00
2017-11-19T09:47:54.281Z,90.30
2017-11-19T09:50:22.817Z,89.50
2017-11-19T09:52:51.173Z,90.40
2017-11-19T09:55:18.737Z,90.00
2017-11-19T09:57:46.686Z,90.00
2017-11-19T10:00:14.266Z,90.00
2017-11-19T10:02:41.894Z,90.10
2017-11-19T10:05:09.471Z,89.20
2017-11-19T10:07:37.884Z,87.10
2017-11-19T10:10:08.312Z,86.50
2017-11-19T10:12:36.110Z,87.00
2017-11-19T10:15:03.741Z,83.70
2017-11-19T10:17:32.097Z,80.90
2017-11-19T10:19:59.678Z,81.00
2017-11-19T10:22:27.293Z,82.80
2017-11-19T10:24:55.331Z,79.70
2017-11-19T10:27:22.958Z,78.90
2017-11-19T10:29:50.921Z,78.40
2017-11-19T10:32:18.572Z,80.10
2017-11-19T10:34:47.258Z,78.00
2017-11-19T10:37:15.833Z,79.50
2017-11-19T10:46:29.682Z,76.00
2017-11-19T10:48:57.576Z,77.40
2017-11-19T10:51:25.778Z,70.80
2017-11-19T10:53:53.352Z,72.50
2017-11-19T10:56:21.363Z,72.80
2017-11-19T10:58:49.445Z,73.40
2017-11-19T11:01:17.043Z,74.00
2017-11-19T11:03:45.822Z,73.10
2017-11-19T11:06:13.348Z,72.70
2017-11-19T11:08:41.183Z,70.70
2017-11-19T11:11:08.738Z,68.20
2017-11-19T11:13:37.306Z,69.60
2017-11-19T11:16:05.237Z,67.60
2017-11-19T11:18:32.827Z,67.00
2017-11-19T11:21:00.404Z,68.10
2017-11-19T11:23:28.021Z,67.00
2017-11-19T11:25:55.913Z,67.30
2017-11-19T11:28:23.497Z,65.10
2017-11-19T11:30:51.070Z,63.80
2017-11-19T11:33:18.641Z,63.60
2017-11-19T11:35:46.683Z,65.00
2017-11-19T11:38:14.268Z,64.00
2017-11-19T11:40:41.832Z,62.10
2017-11-19T11:43:10.196Z,62.00
2017-11-19T11:45:37.771Z,62.00
2017-11-19T11:48:06.959Z,64.00
2017-11-19T11:50:34.834Z,64.00
2017-11-19T11:53:03.220Z,65.70
2017-11-19T11:55:30.808Z,65.70
2017-11-19T11:57:58.353Z,66.40
2017-11-19T12:00:27.491Z,66.40
2017-11-19T12:02:55.071Z,66.20
2017-11-19T12:05:22.709Z,66.30
2017-11-19T12:07:50.273Z,66.50
2017-11-19T12:10:17.853Z,66.80
2017-11-19T12:12:45.984Z,66.80
2017-11-19T12:15:13.577Z,68.00
2017-11-19T12:17:41.135Z,67.50
2017-11-19T12:20:08.689Z,67.20
2017-11-19T12:22:36.467Z,65.60
2017-11-19T12:25:04.045Z,66.80
2017-11-19T12:27:31.603Z,65.90
2017-11-19T12:29:59.178Z,67.10
2017-11-19T12:32:26.802Z,67.50
2017-11-19T12:34:54.422Z,67.50
2017-11-19T12:37:22.157Z,65.60
2017-11-19T12:39:49.699Z,66.60
2017-11-19T12:42:17.271Z,66.20
2017-11-19T12:44:45.360Z,65.80
2017-11-19T12:47:12.937Z,65.70
2017-11-19T12:49:41.254Z,64.00
2017-11-19T12:52:08.811Z,63.90
2017-11-19T12:54:37.292Z,63.40
2017-11-19T12:57:05.197Z,64.50
2017-11-19T12:59:33.578Z,64.50
2017-11-19T13:02:01.143Z,63.10
2017-11-19T13:04:28.725Z,61.70
2017-11-19T13:06:57.049Z,61.40
2017-11-19T13:09:24.934Z,61.40
2017-11-19T13:11:52.703Z,60.40
2017-11-19T13:14:21.043Z,62.50
2017-11-19T13:16:48.679Z,59.50
2017-11-19T13:19:16.655Z,61.00
2017-11-19T13:21:44.214Z,60.70
2017-11-19T13:24:12.502Z,62.20
2017-11-19T13:26:40.142Z,62.20
2017-11-19T13:29:08.481Z,62.40
2017-11-19T13:31:36.074Z,62.30
2017-11-19T13:34:04.453Z,63.40
2017-11-19T13:36:32.801Z,63.40
2017-11-19T13:39:00.367Z,63.40
2017-11-19T13:41:27.962Z,63.50
2017-11-19T13:43:59.129Z,64.60
2017-11-19T13:46:26.965Z,64.50
2017-11-19T13:48:56.075Z,64.40
2017-11-19T13:51:24.408Z,64.70
2017-11-19T13:53:51.974Z,64.60
2017-11-19T13:56:19.534Z,65.70
2017-11-19T13:58:47.115Z,66.80
2017-11-19T14:01:45.179Z,66.90
2017-11-19T14:04:12.762Z,67.20
2017-11-19T14:06:41.097Z,67.10
2017-11-19T14:09:08.672Z,67.10
2017-11-19T14:11:36.281Z,66.00
2017-11-19T14:14:04.671Z,64.90
2017-11-19T14:16:32.231Z,64.80
2017-11-19T14:18:59.815Z,66.40
2017-11-19T14:21:28.179Z,65.80
2017-11-19T14:23:56.215Z,65.70
2017-11-19T14:26:24.536Z,65.90
2017-11-19T14:28:53.272Z,65.90
2017-11-19T14:31:20.868Z,67.20
2017-11-19T14:33:48.428Z,68.10
2017-11-19T14:36:16.925Z,68.90
2017-11-19T14:38:44.522Z,67.70
2017-11-19T14:41:12.127Z,67.60
2017-11-19T14:43:39.733Z,68.80
2017-11-19T14:46:07.344Z,68.60
2017-11-19T14:48:34.949Z,69.40
2017-11-19T14:51:02.541Z,69.60
2017-11-19T14:53:30.856Z,70.50
2017-11-19T14:55:59.191Z,70.10
2017-11-19T14:58:26.963Z,70.10
2017-11-19T15:00:54.530Z,69.50
2017-11-19T15:03:22.127Z,70.50
2017-11-19T15:05:50.490Z,69.70
2017-11-19T15:08:18.842Z,70.00
2017-11-19T15:10:46.545Z,69.90
2017-11-19T15:13:14.941Z,69.90
2017-11-19T15:15:42.546Z,69.90
2017-11-19T15:18:10.129Z,70.30
2017-11-19T15:20:37.724Z,70.70
2017-11-19T15:23:05.503Z,71.10
2017-11-19T15:25:33.100Z,71.50
2017-11-19T15:28:00.684Z,70.80
2017-11-19T15:30:28.246Z,71.10
2017-11-19T15:32:56.818Z,70.30
2017-11-19T15:35:24.412Z,70.30
2017-11-19T15:37:52.031Z,70.40
2017-11-19T15:40:19.611Z,70.50
2017-11-19T15:42:47.258Z,70.30
2017-11-19T15:45:15.248Z,70.80
2017-11-19T15:47:43.570Z,72.10
2017-11-19T15:50:11.131Z,72.00
2017-11-19T15:52:38.704Z,72.40
2017-11-19T15:55:06.253Z,71.30
2017-11-19T15:57:33.846Z,71.70
2017-11-19T16:00:01.405Z,72.60
2017-11-19T16:02:29.014Z,72.30
2017-11-19T16:04:57.522Z,72.10
2017-11-19T16:07:25.223Z,72.90
2017-11-19T16:09:52.855Z,73.00
2017-11-19T16:12:20.452Z,72.80
2017-11-19T16:14:48.800Z,73.00
2017-11-19T16:17:16.406Z,72.90
2017-11-19T16:19:44.763Z,72.90
2017-11-19T16:22:13.129Z,73.20
2017-11-19T16:24:40.762Z,73.20
2017-11-19T16:27:08.342Z,72.70
2017-11-19T16:29:36.083Z,72.80
2017-11-19T16:32:03.643Z,73.30
2017-11-19T16:34:31.231Z,73.60
2017-11-19T16:36:58.811Z,74.00
2017-11-19T16:39:27.392Z,73.90
2017-11-19T16:41:55.929Z,73.70
2017-11-19T16:44:23.476Z,73.70
2017-11-19T16:46:51.039Z,73.80
2017-11-19T16:49:18.629Z,73.60
2017-11-19T16:51:46.502Z,74.20
2017-11-19T16:54:14.819Z,74.80
2017-11-19T16:56:43.145Z,74.70
2017-11-19T16:59:10.708Z,74.70
2017-11-19T17:01:38.297Z,74.30
2017-11-19T17:04:06.938Z,74.70
2017-11-19T17:06:34.527Z,74.70
2017-11-19T17:09:02.104Z,75.00
2017-11-19T17:11:29.675Z,75.10
2017-11-19T17:13:58.003Z,75.60
2017-11-19T17:16:25.666Z,75.60
2017-11-19T17:18:53.238Z,75.90
2017-11-19T17:21:20.822Z,76.10
2017-11-19T17:23:48.404Z,76.30
2017-11-19T17:26:17.138Z,76.40
2017-11-19T17:28:44.719Z,76.50
2017-11-19T17:31:12.281Z,76.60
2017-11-19T17:33:39.855Z,76.50
2017-11-19T17:36:13.324Z,76.90
2017-11-19T17:38:40.923Z,77.10
2017-11-19T17:41:09.248Z,77.50
2017-11-19T17:43:36.960Z,77.40
2017-11-19T17:46:04.532Z,77.50
2017-11-19T17:48:32.904Z,78.00
2017-11-19T17:51:00.432Z,78.00
2017-11-19T17:53:28.014Z,78.60
2017-11-19T17:55:55.632Z,78.50
2017-11-19T17:58:23.216Z,78.00
2017-11-19T18:00:51.271Z,78.90
2017-11-19T18:03:18.920Z,78.30
2017-11-19T18:05:46.506Z,78.30
2017-11-19T18:08:14.078Z,78.60
2017-11-19T18:10:41.659Z,78.80
2017-11-19T18:13:09.245Z,79.20
2017-11-19T18:15:37.092Z,79.20
2017-11-19T18:18:05.573Z,79.30
2017-11-19T18:20:33.915Z,79.10
2017-11-19T18:23:01.539Z,79.10
2017-11-19T18:25:29.138Z,79.00
2017-11-19T18:27:56.970Z,78.40
2017-11-19T18:30:24.646Z,78.40
2017-11-19T18:32:52.240Z,78.20
2017-11-19T18:35:19.818Z,78.10
2017-11-19T18:37:47.480Z,78.10
2017-11-19T18:40:16.356Z,78.20
2017-11-19T18:42:43.955Z,78.20
2017-11-19T18:45:11.520Z,78.10
2017-11-19T18:47:39.092Z,78.30
2017-11-19T18:50:07.499Z,78.30
2017-11-19T18:52:35.069Z,78.40
2017-11-19T18:55:02.974Z,78.60
2017-11-19T18:57:30.586Z,78.50
2017-11-19T18:59:58.170Z,78.40
2017-11-19T19:02:26.063Z,79.00
2017-11-19T19:04:53.685Z,79.30
2017-11-19T19:07:21.252Z,79.50
2017-11-19T19:09:48.849Z,80.00
2017-11-19T19:12:16.584Z,79.80
2017-11-19T19:14:44.155Z,79.50
2017-11-19T19:17:11.749Z,79.00
2017-11-19T19:19:40.097Z,79.70
2017-11-19T19:22:07.687Z,79.00
2017-11-19T19:24:36.319Z,78.40
2017-11-19T19:27:04.027Z,78.40
2017-11-19T19:29:31.608Z,78.10
2017-11-19T19:31:59.937Z,78.30
2017-11-19T19:34:27.759Z,78.20
2017-11-19T19:36:55.351Z,77.80
2017-11-19T19:39:23.214Z,77.80
2017-11-19T19:41:50.758Z,77.70
2017-11-19T19:44:18.328Z,77.90
2017-11-19T19:46:46.680Z,78.00
2017-11-19T19:49:15.026Z,78.50
2017-11-19T19:51:43.407Z,78.40
2017-11-19T19:54:10.993Z,78.50
2017-11-19T19:56:39.330Z,78.80
2017-11-19T19:59:07.602Z,78.70
2017-11-19T20:01:35.162Z,79.20
2017-11-19T20:04:02.756Z,78.80
2017-11-19T20:06:30.299Z,78.80
2017-11-19T20:08:57.871Z,78.80
2017-11-19T20:11:26.010Z,78.70
2017-11-19T20:13:53.604Z,78.00
2017-11-19T20:16:21.184Z,77.90
2017-11-19T20:18:49.500Z,78.00
2017-11-19T20:21:17.180Z,77.90
2017-11-19T20:23:44.779Z,77.70
2017-11-19T20:26:13.104Z,78.10
2017-11-19T20:28:40.675Z,77.30
2017-11-19T20:31:08.265Z,77.90
2017-11-19T20:33:36.010Z,77.10
2017-11-19T20:36:03.608Z,76.40
2017-11-19T20:38:31.964Z,76.20
2017-11-19T20:40:59.543Z,76.10
2017-11-19T20:43:27.893Z,76.10
2017-11-19T20:45:55.697Z,76.00
2017-11-19T20:48:24.033Z,76.00
2017-11-19T20:50:51.599Z,76.00
2017-11-19T20:53:19.201Z,75.50
2017-11-19T20:55:46.843Z,75.80
2017-11-19T20:58:15.190Z,76.70
2017-11-19T21:00:42.758Z,76.10
2017-11-19T21:03:10.346Z,76.40
2017-11-19T21:05:38.975Z,76.70
2017-11-19T21:08:07.565Z,76.90
2017-11-19T21:10:35.271Z,76.80
2017-11-19T21:13:03.910Z,76.90
2017-11-19T21:15:31.535Z,76.90
2017-11-19T21:17:59.989Z,77.10
2017-11-19T21:20:27.842Z,77.10
2017-11-19T21:22:55.434Z,77.20
2017-11-19T21:25:23.038Z,77.30
2017-11-19T21:27:50.617Z,77.20
2017-11-19T21:30:18.238Z,77.60
2017-11-19T21:32:46.574Z,77.50
2017-11-19T21:35:14.188Z,77.50
2017-11-19T21:37:41.743Z,77.50
2017-11-19T21:40:10.105Z,79.00
2017-11-19T21:42:37.703Z,79.10
2017-11-19T21:45:05.312Z,79.40
2017-11-19T21:47:32.910Z,79.90
2017-11-19T21:50:01.246Z,81.10
2017-11-19T21:52:28.819Z,81.10
2017-11-19T21:54:56.385Z,80.80
2017-11-19T21:57:24.776Z,80.80
2017-11-19T21:59:53.097Z,80.60
2017-11-19T22:02:20.666Z,80.50
2017-11-19T22:04:49.031Z,80.40
2017-11-19T22:07:16.643Z,80.40
2017-11-19T22:09:45.828Z,80.40
2017-11-19T22:12:13.378Z,80.40
2017-11-19T22:14:40.948Z,80.80
2017-11-19T22:17:08.515Z,81.20
2017-11-19T22:19:36.117Z,80.60
2017-11-19T22:22:03.670Z,80.50
2017-11-19T22:24:31.260Z,80.80
2017-11-19T22:26:58.799Z,80.90
2017-11-19T22:29:26.382Z,81.20
2017-11-19T22:31:53.946Z,81.20
2017-11-19T22:34:21.516Z,81.50
2017-11-19T22:36:49.085Z,81.70
2017-11-19T22:39:16.631Z,81.90
2017-11-19T22:41:44.204Z,82.10
2017-11-19T22:44:11.764Z,82.20
2017-11-19T22:46:39.347Z,82.20
2017-11-19T22:49:07.714Z,82.40
2017-11-19T22:51:35.297Z,82.40
2017-11-19T22:54:03.682Z,82.50
2017-11-19T22:56:31.997Z,82.40
2017-11-19T22:58:59.578Z,82.40
2017-11-19T23:01:27.137Z,82.50
2017-11-19T23:03:54.694Z,82.60
2017-11-19T23:06:22.260Z,82.70
2017-11-19T23:08:49.843Z,82.80
2017-11-19T23:11:18.184Z,82.80
2017-11-19T23:13:45.761Z,82.70
2017-11-19T23:16:13.388Z,82.90
2017-11-19T23:18:40.948Z,83.10
2017-11-19T23:21:08.506Z,82.70
2017-11-19T23:23:36.086Z,82.80
2017-11-19T23:26:03.728Z,82.80
2017-11-19T23:28:31.311Z,82.80
2017-11-19T23:30:58.887Z,82.90
2017-11-19T23:33:26.438Z,82.90
2017-11-19T23:35:54.000Z,82.70
2017-11-19T23:38:21.569Z,82.60
2017-11-19T23:40:49.149Z,82.70
2017-11-19T23:43:17.491Z,82.60
2017-11-19T23:45:45.055Z,82.70
2017-11-19T23:48:12.621Z,82.60
2017-11-19T23:50:40.195Z,82.40
2017-11-19T23:53:07.750Z,82.30
2017-11-19T23:55:35.340Z,82.30
2017-11-19T23:58:03.672Z,82.70
